Time;durP1;ratioP1;P1;durP2;ratioP2;P2;SDS_P1;SDS_P2;PMS_P1;PMS_P2;Temp;Humidity;BMP_temperature;BMP_pressure;BME280_temperature;BME280_humidity;BME280_pressure;Samples;Min_cycle;Max_cycle;Signal;HPM_P1;HPM_P2
2022/12/28 00:01:29;;;;;;;4.43;1.55;;;3.40;99.90;;;;;;4961053;28;20070;-61
2022/12/28 00:03:59;;;;;;;10.40;1.90;;;3.40;99.90;;;;;;4958621;28;20512;-62
2022/12/28 00:06:27;;;;;;;10.80;1.95;;;3.40;99.90;;;;;;4963370;28;20148;-63
2022/12/28 00:08:55;;;;;;;6.43;1.10;;;3.40;99.90;;;;;;4958498;28;20133;-61
2022/12/28 00:11:23;;;;;;;8.30;0.85;;;3.40;99.90;;;;;;4963883;28;20055;-61
2022/12/28 00:14:01;;;;;;;5.78;1.00;;;3.40;99.90;;;;;;4965839;28;20475;-61
2022/12/28 00:16:36;;;;;;;6.22;1.45;;;3.40;99.90;;;;;;4964202;28;20053;-61
2022/12/28 00:19:11;;;;;;;4.78;1.30;;;3.40;99.90;;;;;;4960005;28;20093;-60
2022/12/28 00:21:39;;;;;;;5.60;1.05;;;3.50;99.90;;;;;;4960448;28;20065;-61
2022/12/28 00:24:07;;;;;;;9.75;1.88;;;3.50;99.90;;;;;;4962861;28;20043;-63
2022/12/28 00:26:34;;;;;;;7.45;1.15;;;3.50;99.90;;;;;;4961694;28;20133;-61
2022/12/28 00:29:01;;;;;;;5.10;1.38;;;3.40;99.90;;;;;;4959120;28;20778;-61
2022/12/28 00:31:34;;;;;;;12.18;2.10;;;3.40;99.90;;;;;;4965071;28;20061;-62
2022/12/28 00:34:02;;;;;;;4.97;0.80;;;3.40;99.90;;;;;;4963665;28;20062;-61
2022/12/28 00:36:30;;;;;;;4.30;1.30;;;3.40;99.90;;;;;;4960827;28;20528;-68
2022/12/28 00:39:19;;;;;;;7.47;1.88;;;3.40;99.90;;;;;;4984307;28;20117;-65
2022/12/28 00:41:46;;;;;;;4.43;1.73;;;3.40;99.90;;;;;;4959297;28;20071;-60
2022/12/28 00:44:13;;;;;;;8.70;1.40;;;3.40;99.90;;;;;;4961967;28;20105;-62
2022/12/28 00:46:40;;;;;;;6.47;1.30;;;3.40;99.90;;;;;;4959539;28;20086;-61
2022/12/28 00:49:07;;;;;;;6.72;1.67;;;3.40;99.90;;;;;;4966127;28;20154;-61
2022/12/28 00:51:34;;;;;;;6.93;1.83;;;3.40;99.90;;;;;;4956276;28;20071;-63
2022/12/28 00:54:01;;;;;;;11.15;1.30;;;3.40;99.90;;;;;;4985376;28;20536;-62
2022/12/28 00:56:28;;;;;;;10.25;1.40;;;3.40;99.90;;;;;;4963208;28;20047;-64
2022/12/28 00:58:57;;;;;;;10.82;1.80;;;3.40;99.90;;;;;;4961603;28;20098;-60
2022/12/28 01:01:25;;;;;;;2.78;1.13;;;3.40;99.90;;;;;;4956257;28;20440;-63
2022/12/28 01:03:55;;;;;;;4.32;1.20;;;3.40;99.90;;;;;;4967090;28;20118;-60
2022/12/28 01:06:24;;;;;;;4.60;1.30;;;3.50;99.90;;;;;;4962712;28;20054;-61
2022/12/28 01:08:51;;;;;;;6.72;1.40;;;3.40;99.90;;;;;;4962287;28;20806;-61
2022/12/28 01:11:21;;;;;;;6.25;1.23;;;3.50;99.90;;;;;;4958690;28;20438;-61
2022/12/28 01:13:50;;;;;;;11.18;2.75;;;3.50;99.90;;;;;;4964419;28;20141;-63
2022/12/28 01:16:20;;;;;;;3.60;1.33;;;3.50;99.90;;;;;;4958360;28;20047;-62
2022/12/28 01:18:51;;;;;;;7.13;1.58;;;3.40;99.90;;;;;;4958672;28;20067;-60
2022/12/28 01:21:22;;;;;;;9.55;2.78;;;3.40;99.90;;;;;;4981143;28;20662;-61
2022/12/28 01:23:52;;;;;;;5.50;0.70;;;3.40;99.90;;;;;;4957964;28;20054;-61
2022/12/28 01:26:19;;;;;;;9.00;1.67;;;3.40;99.90;;;;;;4958454;28;20537;-61
2022/12/28 01:28:46;;;;;;;4.95;1.83;;;3.40;99.90;;;;;;4955486;28;20153;-61
2022/12/28 01:31:15;;;;;;;7.10;2.15;;;3.40;99.90;;;;;;4959463;28;20043;-62
2022/12/28 01:33:43;;;;;;;5.38;1.38;;;3.40;99.90;;;;;;4960940;28;20129;-61
2022/12/28 01:36:14;;;;;;;6.75;2.08;;;3.40;99.90;;;;;;4963442;28;20125;-60
2022/12/28 01:38:42;;;;;;;7.35;1.20;;;3.40;99.90;;;;;;4956102;28;20075;-61
2022/12/28 01:41:12;;;;;;;5.38;1.30;;;3.40;99.90;;;;;;4960081;28;20050;-65
2022/12/28 01:43:40;;;;;;;4.93;2.10;;;3.40;99.90;;;;;;4958669;28;20073;-60
2022/12/28 01:46:36;;;;;;;6.07;1.38;;;3.30;99.90;;;;;;4959461;28;20047;-61
2022/12/28 01:49:15;;;;;;;5.28;1.08;;;3.30;99.90;;;;;;4966661;28;20051;-61
2022/12/28 01:51:48;;;;;;;7.35;1.60;;;3.30;99.90;;;;;;4965080;28;20105;-60
2022/12/28 01:54:17;;;;;;;7.35;1.40;;;3.40;99.90;;;;;;4961335;28;20799;-61
2022/12/28 01:56:47;;;;;;;7.88;1.45;;;3.30;99.90;;;;;;4960984;28;20074;-64
2022/12/28 01:59:16;;;;;;;5.53;1.70;;;3.30;99.90;;;;;;4974755;28;20413;-61
2022/12/28 02:01:43;;;;;;;9.40;1.90;;;3.30;99.90;;;;;;4965790;28;20058;-61
2022/12/28 02:04:10;;;;;;;12.57;2.72;;;3.30;99.90;;;;;;4980032;28;20074;-61
2022/12/28 02:06:37;;;;;;;9.65;1.25;;;3.30;99.90;;;;;;4977095;28;20460;-62
2022/12/28 02:09:12;;;;;;;4.32;1.27;;;3.30;99.90;;;;;;4960235;28;20047;-61
2022/12/28 02:11:40;;;;;;;8.32;1.30;;;3.20;99.90;;;;;;4958618;28;20051;-62
2022/12/28 02:14:08;;;;;;;13.02;1.77;;;3.20;99.90;;;;;;4974647;28;20129;-60
2022/12/28 02:16:35;;;;;;;4.95;0.93;;;3.20;99.90;;;;;;4961587;28;20149;-61
2022/12/28 02:19:04;;;;;;;10.30;1.40;;;3.20;99.90;;;;;;4965055;28;20047;-63
2022/12/28 02:21:34;;;;;;;5.50;1.52;;;3.20;99.90;;;;;;4960093;28;20149;-61
2022/12/28 02:24:13;;;;;;;3.35;0.93;;;3.10;99.90;;;;;;4964410;28;20085;-64
2022/12/28 02:26:56;;;;;;;3.38;1.00;;;3.10;99.90;;;;;;4957404;28;20736;-61
2022/12/28 02:29:52;;;;;;;4.63;0.93;;;3.10;99.90;;;;;;4962742;28;20143;-62
2022/12/28 02:32:24;;;;;;;9.60;0.95;;;3.20;99.90;;;;;;4958648;28;20047;-61
2022/12/28 02:35:11;;;;;;;7.32;1.33;;;3.20;99.90;;;;;;4957101;28;20153;-63
2022/12/28 02:37:45;;;;;;;9.40;2.13;;;3.20;99.90;;;;;;4975610;28;20130;-62
2022/12/28 02:40:26;;;;;;;8.88;4.22;;;3.30;99.90;;;;;;4963921;28;20191;-60
2022/12/28 02:42:54;;;;;;;4.72;1.25;;;3.30;99.90;;;;;;4967355;28;20054;-60
2022/12/28 02:51:17;;;;;;;5.00;0.90;;;3.30;99.90;;;;;;4960163;28;20047;-64
2022/12/28 02:56:05;;;;;;;3.63;0.82;;;3.30;99.90;;;;;;4960281;28;20051;-63
2022/12/28 02:57:13;;;;;;;4.07;1.55;;;3.30;99.90;;;;;;4955643;28;20520;-64
2022/12/28 03:00:02;;;;;;;4.13;1.55;;;3.30;99.90;;;;;;4990041;28;20504;-60
2022/12/28 03:03:00;;;;;;;7.23;2.20;;;3.20;99.90;;;;;;4958264;28;20050;-63
2022/12/28 03:08:56;;;;;;;6.88;1.23;;;3.20;99.90;;;;;;4956058;28;20043;-62
2022/12/28 03:11:47;;;;;;;5.65;1.88;;;3.20;99.90;;;;;;4961151;28;20054;-62
2022/12/28 03:14:29;;;;;;;2.75;1.30;;;3.20;99.90;;;;;;4961705;28;20457;-63
2022/12/28 03:31:23;;;;;;;6.28;1.00;;;3.20;99.90;;;;;;4956790;28;20055;-63
2022/12/28 03:34:05;;;;;;;1.75;0.80;;;3.10;99.90;;;;;;4952713;28;20038;-61
2022/12/28 03:36:51;;;;;;;2.17;0.90;;;3.10;99.90;;;;;;4956332;28;20066;-63
2022/12/28 03:39:31;;;;;;;5.80;1.10;;;3.20;99.90;;;;;;4955959;28;20559;-61
2022/12/28 03:45:43;;;;;;;6.80;1.23;;;3.20;99.90;;;;;;4956144;28;20058;-62
2022/12/28 03:48:16;;;;;;;3.45;2.00;;;3.10;99.90;;;;;;4957849;28;20543;-63
2022/12/28 03:50:47;;;;;;;3.60;1.73;;;3.10;99.90;;;;;;4953888;28;20517;-62
2022/12/28 03:53:20;;;;;;;8.73;1.33;;;3.10;99.90;;;;;;4979075;28;20050;-61
2022/12/28 03:55:49;;;;;;;5.55;1.08;;;3.10;99.90;;;;;;4960625;28;20081;-62
2022/12/28 03:58:20;;;;;;;5.13;1.30;;;3.10;99.90;;;;;;4961560;28;20058;-62
2022/12/28 04:00:48;;;;;;;8.55;1.13;;;3.10;99.90;;;;;;4956886;28;20068;-62
2022/12/28 04:03:15;;;;;;;6.22;1.27;;;3.00;99.90;;;;;;4956234;28;20546;-62
2022/12/28 04:05:42;;;;;;;11.95;2.20;;;3.10;99.90;;;;;;4957817;28;20142;-60
2022/12/28 04:08:09;;;;;;;5.00;0.82;;;3.10;99.90;;;;;;4960752;28;20061;-61
2022/12/28 04:10:36;;;;;;;10.85;3.60;;;3.10;99.90;;;;;;4971465;28;20083;-61
2022/12/28 04:13:03;;;;;;;10.65;1.27;;;3.00;99.90;;;;;;4975301;28;20072;-62
2022/12/28 04:16:05;;;;;;;8.38;1.25;;;3.00;99.90;;;;;;4958138;28;20244;-61
2022/12/28 04:18:34;;;;;;;7.18;2.33;;;3.00;99.90;;;;;;4958165;28;20157;-61
2022/12/28 04:21:01;;;;;;;1.63;0.82;;;3.00;99.90;;;;;;4967482;28;20070;-61
2022/12/28 04:23:30;;;;;;;1.90;1.02;;;3.00;99.90;;;;;;4964495;28;20058;-63
2022/12/28 04:26:19;;;;;;;6.20;1.65;;;3.00;99.90;;;;;;4959594;28;20515;-61
2022/12/28 04:28:48;;;;;;;4.57;1.13;;;3.00;99.90;;;;;;4960849;28;20148;-61
2022/12/28 04:31:54;;;;;;;3.83;1.13;;;3.00;99.90;;;;;;4955820;28;20425;-61
2022/12/28 04:34:21;;;;;;;7.30;1.45;;;3.00;99.90;;;;;;4972626;28;20161;-62
2022/12/28 04:37:06;;;;;;;3.35;0.88;;;3.00;99.90;;;;;;4975119;28;20075;-62
2022/12/28 04:39:33;;;;;;;4.10;0.90;;;3.00;99.90;;;;;;4968657;28;20058;-61
2022/12/28 04:42:20;;;;;;;8.88;1.25;;;3.00;99.90;;;;;;4968474;28;20505;-61
2022/12/28 04:44:46;;;;;;;8.80;1.40;;;3.10;99.90;;;;;;4956755;28;20061;-63
2022/12/28 04:47:13;;;;;;;2.35;0.75;;;3.10;99.90;;;;;;4954160;28;20549;-61
2022/12/28 04:49:40;;;;;;;3.33;0.82;;;3.10;99.90;;;;;;4959604;28;20693;-61
2022/12/28 04:52:07;;;;;;;5.07;0.88;;;3.10;99.90;;;;;;4954733;28;20173;-64
2022/12/28 04:54:34;;;;;;;4.60;1.40;;;3.10;99.90;;;;;;4961926;28;20082;-61
2022/12/28 04:57:01;;;;;;;4.70;1.63;;;3.10;99.90;;;;;;4966074;28;20055;-62
2022/12/28 04:59:28;;;;;;;6.05;1.25;;;3.10;99.90;;;;;;4959284;28;20046;-61
2022/12/28 05:01:55;;;;;;;4.90;1.17;;;3.10;99.90;;;;;;4965839;28;20136;-65
2022/12/28 05:04:22;;;;;;;4.95;1.25;;;3.10;99.90;;;;;;4964374;28;20058;-61
2022/12/28 05:06:49;;;;;;;3.72;1.02;;;3.00;99.90;;;;;;4961050;28;20068;-62
2022/12/28 05:09:18;;;;;;;7.35;1.77;;;3.00;99.90;;;;;;4963382;28;20114;-63
2022/12/28 05:11:45;;;;;;;3.25;1.40;;;3.10;99.90;;;;;;4957292;28;20050;-61
2022/12/28 05:14:12;;;;;;;7.40;1.50;;;3.00;99.90;;;;;;4961843;28;20197;-61
2022/12/28 05:16:39;;;;;;;1.42;0.82;;;3.10;99.90;;;;;;4959570;28;20207;-61
2022/12/28 05:19:06;;;;;;;2.22;0.60;;;3.00;99.90;;;;;;4961074;28;20493;-61
2022/12/28 05:21:32;;;;;;;3.33;1.20;;;3.00;99.90;;;;;;4959347;28;20103;-61
2022/12/28 05:23:59;;;;;;;3.17;0.90;;;3.00;99.90;;;;;;4963562;28;20046;-65
2022/12/28 05:26:28;;;;;;;0.82;0.73;;;3.10;99.90;;;;;;4961797;28;20055;-63
2022/12/28 05:28:57;;;;;;;3.72;1.05;;;3.10;99.90;;;;;;4960003;28;20373;-62
2022/12/28 05:31:25;;;;;;;7.90;2.55;;;3.10;99.90;;;;;;4962478;28;20043;-60
2022/12/28 05:33:53;;;;;;;4.10;0.68;;;3.10;99.90;;;;;;4958832;28;20560;-62
2022/12/28 05:36:26;;;;;;;4.55;0.55;;;3.10;99.90;;;;;;4966080;28;20047;-61
2022/12/28 05:38:54;;;;;;;4.88;0.90;;;3.00;99.90;;;;;;4957552;28;20073;-64
2022/12/28 05:41:24;;;;;;;9.27;0.80;;;3.10;99.90;;;;;;4959708;28;20055;-60
2022/12/28 05:43:51;;;;;;;2.43;0.67;;;3.10;99.90;;;;;;4960670;28;20130;-64
2022/12/28 05:46:26;;;;;;;4.43;1.90;;;3.10;99.90;;;;;;4960525;28;20305;-60
2022/12/28 05:48:54;;;;;;;3.35;1.02;;;3.10;99.90;;;;;;4958922;28;20158;-62
2022/12/28 05:51:23;;;;;;;4.75;0.98;;;3.10;99.90;;;;;;4953540;28;20070;-61
2022/12/28 05:53:50;;;;;;;2.72;1.55;;;3.10;99.90;;;;;;4960659;28;20051;-62
2022/12/28 05:56:28;;;;;;;4.50;1.80;;;3.10;99.90;;;;;;4958617;28;20468;-61
2022/12/28 05:59:02;;;;;;;3.28;0.95;;;3.10;99.90;;;;;;4959242;28;20577;-62
2022/12/28 06:01:33;;;;;;;8.13;0.93;;;3.20;99.90;;;;;;4964026;28;20548;-62
2022/12/28 06:04:02;;;;;;;4.72;1.27;;;3.20;99.90;;;;;;4959646;28;20149;-63
2022/12/28 06:06:30;;;;;;;4.32;1.13;;;3.20;99.90;;;;;;4957416;28;20581;-63
2022/12/28 06:08:57;;;;;;;6.85;1.45;;;3.20;99.90;;;;;;4965011;28;20047;-61
2022/12/28 06:11:26;;;;;;;5.80;1.67;;;3.20;99.90;;;;;;4962452;28;20054;-61
2022/12/28 06:13:54;;;;;;;1.90;0.85;;;3.20;99.90;;;;;;4966369;28;20631;-61
2022/12/28 06:16:27;;;;;;;4.82;0.75;;;3.20;99.90;;;;;;4962508;28;20225;-64
2022/12/28 06:18:54;;;;;;;2.63;0.60;;;3.20;99.90;;;;;;4961680;28;20051;-61
2022/12/28 06:21:32;;;;;;;5.75;1.60;;;3.20;99.90;;;;;;4959511;28;20341;-61
2022/12/28 06:24:00;;;;;;;3.92;1.50;;;3.20;99.90;;;;;;4964851;28;20113;-62
2022/12/28 06:26:31;;;;;;;6.60;0.90;;;3.20;99.90;;;;;;4963416;28;20072;-61
2022/12/28 06:29:00;;;;;;;4.60;1.08;;;3.20;99.90;;;;;;4964593;28;20051;-64
2022/12/28 06:31:30;;;;;;;5.15;1.05;;;3.20;99.90;;;;;;4963453;28;20489;-61
2022/12/28 06:33:59;;;;;;;5.85;1.27;;;3.20;99.90;;;;;;4961853;28;20049;-62
2022/12/28 06:36:37;;;;;;;2.78;0.73;;;3.20;99.90;;;;;;4960583;28;20050;-61
2022/12/28 06:39:07;;;;;;;8.48;2.03;;;3.20;99.90;;;;;;4956716;28;20153;-62
2022/12/28 06:41:34;;;;;;;4.72;1.63;;;3.20;99.90;;;;;;4962533;28;20058;-61
2022/12/28 06:44:05;;;;;;;4.40;1.42;;;3.20;99.90;;;;;;4958219;28;20039;-61
2022/12/28 06:46:32;;;;;;;3.15;1.17;;;3.20;99.90;;;;;;4959922;28;20125;-64
2022/12/28 06:48:59;;;;;;;5.90;2.15;;;3.30;99.90;;;;;;4956883;28;20448;-63
2022/12/28 06:51:35;;;;;;;5.63;2.25;;;3.30;99.90;;;;;;4958635;28;20133;-61
2022/12/28 06:54:02;;;;;;;3.85;1.70;;;3.30;99.90;;;;;;4959557;28;20133;-61
2022/12/28 06:56:31;;;;;;;3.20;1.27;;;3.30;99.90;;;;;;4957127;28;20118;-63
2022/12/28 06:58:59;;;;;;;4.38;1.38;;;3.20;99.90;;;;;;4959761;28;20101;-61
2022/12/28 07:01:32;;;;;;;5.40;1.25;;;3.20;99.90;;;;;;4961220;28;20055;-63
2022/12/28 07:04:01;;;;;;;4.90;1.27;;;3.20;99.90;;;;;;4961309;28;20059;-61
2022/12/28 07:06:29;;;;;;;4.57;1.52;;;3.20;99.90;;;;;;4959301;28;20042;-61
2022/12/28 07:09:01;;;;;;;3.72;1.55;;;3.20;99.90;;;;;;4954235;28;20097;-63
2022/12/28 07:11:28;;;;;;;7.25;3.15;;;3.10;99.90;;;;;;4961753;28;20532;-61
2022/12/28 07:13:55;;;;;;;6.50;2.83;;;3.10;99.90;;;;;;4958151;28;20225;-61
2022/12/28 07:16:24;;;;;;;9.57;2.25;;;3.10;99.90;;;;;;4960471;28;20548;-61
2022/12/28 07:18:51;;;;;;;6.93;1.92;;;3.10;99.90;;;;;;4961096;28;20050;-62
2022/12/28 07:21:20;;;;;;;6.82;2.10;;;3.10;99.90;;;;;;4961959;28;20137;-61
2022/12/28 07:23:49;;;;;;;6.85;1.85;;;3.10;99.90;;;;;;4960944;28;20837;-62
2022/12/28 07:26:22;;;;;;;10.82;1.92;;;3.10;99.90;;;;;;4961295;28;20158;-62
2022/12/28 07:28:51;;;;;;;7.47;2.22;;;3.00;99.90;;;;;;4959067;28;20055;-62
2022/12/28 07:31:25;;;;;;;9.13;3.33;;;3.00;99.90;;;;;;4961559;28;20101;-61
2022/12/28 07:33:54;;;;;;;5.07;2.50;;;3.00;99.90;;;;;;4960206;28;20567;-63
2022/12/28 07:36:22;;;;;;;6.65;2.53;;;3.00;99.90;;;;;;4961567;28;20061;-61
2022/12/28 07:38:50;;;;;;;6.95;2.38;;;3.00;99.90;;;;;;4958389;28;20142;-61
2022/12/28 07:41:22;;;;;;;5.95;1.85;;;3.00;99.90;;;;;;4958996;28;20110;-61
2022/12/28 07:43:50;;;;;;;10.68;2.97;;;3.00;99.90;;;;;;4953753;28;20150;-64
2022/12/28 07:46:20;;;;;;;9.00;2.70;;;3.00;99.90;;;;;;4958863;28;20057;-61
2022/12/28 07:48:48;;;;;;;3.90;2.47;;;3.00;99.90;;;;;;4959138;28;20091;-61
2022/12/28 07:51:18;;;;;;;4.32;2.03;;;2.90;99.90;;;;;;4963230;28;20174;-61
2022/12/28 07:53:48;;;;;;;8.32;2.95;;;3.00;99.90;;;;;;4959636;28;20051;-62
2022/12/28 07:56:16;;;;;;;9.55;3.17;;;2.90;99.90;;;;;;4961170;28;20133;-65
2022/12/28 07:58:47;;;;;;;8.73;3.33;;;3.00;99.90;;;;;;4955650;28;20468;-61
2022/12/28 08:01:14;;;;;;;9.40;1.85;;;3.00;99.90;;;;;;4958313;28;20077;-61
2022/12/28 08:03:43;;;;;;;10.27;3.08;;;3.00;99.90;;;;;;4961249;28;20100;-65
2022/12/28 08:06:17;;;;;;;14.40;2.78;;;3.00;99.90;;;;;;4963379;28;20102;-62
2022/12/28 08:08:46;;;;;;;8.93;3.83;;;3.00;99.90;;;;;;4959003;28;20480;-62
2022/12/28 08:11:16;;;;;;;7.15;2.47;;;3.00;99.90;;;;;;4961483;28;20051;-64
2022/12/28 08:13:45;;;;;;;6.97;2.35;;;3.00;99.90;;;;;;4963526;28;20554;-63
2022/12/28 08:16:14;;;;;;;9.80;3.20;;;3.00;99.90;;;;;;4963715;28;20142;-64
2022/12/28 08:18:41;;;;;;;13.27;2.85;;;3.00;99.90;;;;;;4958414;28;20053;-61
2022/12/28 08:21:14;;;;;;;10.82;3.35;;;3.00;99.90;;;;;;4964356;28;20768;-61
2022/12/28 08:23:41;;;;;;;7.22;2.78;;;3.00;99.90;;;;;;4962239;28;20568;-63
2022/12/28 08:26:22;;;;;;;7.80;2.75;;;3.00;99.90;;;;;;4963579;28;20054;-61
2022/12/28 08:28:52;;;;;;;7.85;2.83;;;3.00;99.90;;;;;;4960296;28;20497;-62
2022/12/28 08:31:25;;;;;;;7.38;3.10;;;3.00;99.90;;;;;;4967550;28;20093;-61
2022/12/28 08:33:53;;;;;;;9.98;2.38;;;3.00;99.90;;;;;;4963945;28;20142;-61
2022/12/28 08:36:20;;;;;;;7.50;1.77;;;3.00;99.90;;;;;;4964523;28;20168;-61
2022/12/28 08:38:47;;;;;;;3.40;1.45;;;3.00;99.90;;;;;;4955788;28;20051;-61
2022/12/28 08:41:17;;;;;;;5.32;2.50;;;3.00;99.90;;;;;;4968279;28;20406;-64
2022/12/28 08:43:45;;;;;;;7.67;2.30;;;3.00;99.90;;;;;;4963197;28;21740;-61
2022/12/28 08:46:18;;;;;;;6.82;2.42;;;3.00;99.90;;;;;;4962561;28;20079;-62
2022/12/28 08:48:46;;;;;;;7.20;3.47;;;3.00;99.90;;;;;;4961362;28;20050;-61
2022/12/28 08:51:18;;;;;;;10.30;3.08;;;3.00;99.90;;;;;;4961659;28;20050;-62
2022/12/28 08:53:46;;;;;;;4.72;3.15;;;3.00;99.90;;;;;;4958637;28;20519;-61
2022/12/28 08:56:17;;;;;;;11.02;3.30;;;3.00;99.90;;;;;;4964313;28;20561;-63
2022/12/28 08:58:46;;;;;;;9.05;4.15;;;3.00;99.90;;;;;;4958258;28;20421;-62
2022/12/28 09:01:22;;;;;;;10.77;3.05;;;3.00;99.90;;;;;;4966343;28;20169;-62
2022/12/28 09:03:51;;;;;;;12.43;4.25;;;3.00;99.90;;;;;;4956899;28;20157;-61
2022/12/28 09:06:24;;;;;;;10.98;3.92;;;3.00;99.90;;;;;;4961271;28;20075;-63
2022/12/28 09:08:54;;;;;;;10.15;3.28;;;3.00;99.90;;;;;;4958401;28;20070;-62
2022/12/28 09:11:37;;;;;;;7.25;2.83;;;2.90;99.90;;;;;;4963607;28;20134;-60
2022/12/28 09:14:07;;;;;;;7.13;2.28;;;3.00;99.90;;;;;;4959017;28;20133;-61
2022/12/28 09:16:35;;;;;;;15.37;2.60;;;3.00;99.90;;;;;;4961794;28;20367;-61
2022/12/28 09:19:08;;;;;;;7.20;2.58;;;3.00;99.90;;;;;;4962491;28;20063;-61
2022/12/28 09:21:37;;;;;;;6.80;1.80;;;3.00;99.90;;;;;;4960063;28;20092;-64
2022/12/28 09:24:05;;;;;;;8.20;2.58;;;2.90;99.90;;;;;;4961044;28;20054;-61
2022/12/28 09:26:35;;;;;;;12.82;3.22;;;2.90;99.90;;;;;;4961266;28;20058;-62
2022/12/28 09:29:05;;;;;;;8.40;2.28;;;3.00;99.90;;;;;;4959916;28;20113;-61
2022/12/28 09:31:35;;;;;;;10.63;2.72;;;3.00;99.90;;;;;;4964556;28;20084;-61
2022/12/28 09:34:10;;;;;;;6.13;2.13;;;3.00;99.90;;;;;;4964329;28;20669;-62
2022/12/28 09:36:57;;;;;;;5.45;2.03;;;3.00;99.90;;;;;;4961618;28;20509;-62
2022/12/28 09:39:24;;;;;;;6.40;2.30;;;3.00;99.90;;;;;;4959821;28;20051;-62
2022/12/28 09:41:58;;;;;;;9.98;3.90;;;2.90;99.90;;;;;;4961907;28;20120;-61
2022/12/28 09:44:40;;;;;;;6.47;2.33;;;2.90;99.90;;;;;;4963942;28;20234;-62
2022/12/28 09:47:29;;;;;;;6.70;2.35;;;2.90;99.90;;;;;;4962224;28;20054;-61
2022/12/28 09:50:15;;;;;;;4.13;1.98;;;2.90;99.90;;;;;;4961843;28;20101;-62
2022/12/28 09:53:21;;;;;;;6.95;1.92;;;2.80;99.90;;;;;;4958632;28;20047;-61
2022/12/28 09:56:02;;;;;;;5.22;1.52;;;2.80;99.90;;;;;;4962762;28;20047;-62
2022/12/28 09:58:32;;;;;;;3.78;1.30;;;2.80;99.90;;;;;;4961501;28;20057;-64
2022/12/28 10:01:01;;;;;;;3.40;1.75;;;2.80;99.90;;;;;;4963757;28;20047;-63
2022/12/28 10:03:40;;;;;;;2.42;1.30;;;2.80;99.90;;;;;;4964111;28;20055;-62
2022/12/28 10:06:22;;;;;;;2.90;1.77;;;2.80;99.90;;;;;;4962588;28;20051;-61
2022/12/28 10:08:52;;;;;;;5.30;2.25;;;2.80;99.90;;;;;;4958356;28;20485;-63
2022/12/28 10:11:24;;;;;;;;;;;2.70;99.90;;;;;;4957478;28;20843;-61
2022/12/28 10:14:00;;;;;;;2.97;2.70;;;2.80;99.90;;;;;;4962919;28;19929;-61
2022/12/28 10:16:35;;;;;;;1.88;1.40;;;2.70;99.90;;;;;;4961578;28;20047;-62
2022/12/28 10:19:05;;;;;;;3.92;1.48;;;2.70;99.90;;;;;;4964656;28;20098;-62
2022/12/28 10:21:33;;;;;;;4.53;2.33;;;2.70;99.90;;;;;;4963185;28;20054;-63
2022/12/28 10:24:05;;;;;;;7.07;2.17;;;2.70;99.90;;;;;;4956039;28;20138;-61
2022/12/28 10:26:54;;;;;;;3.97;2.25;;;2.70;99.90;;;;;;4961293;28;20051;-62
2022/12/28 10:29:23;;;;;;;6.95;2.38;;;2.60;99.90;;;;;;4960626;28;20054;-61
2022/12/28 10:32:03;;;;;;;4.57;2.33;;;2.60;99.90;;;;;;4964689;28;20055;-62
2022/12/28 10:34:32;;;;;;;3.80;2.10;;;2.60;99.90;;;;;;4958468;28;20141;-61
2022/12/28 10:37:14;;;;;;;4.30;2.45;;;2.50;99.90;;;;;;4961289;28;20523;-61
2022/12/28 10:40:04;;;;;;;4.45;1.73;;;2.50;99.90;;;;;;4960744;28;20055;-64
2022/12/28 10:42:37;;;;;;;7.60;2.80;;;2.40;99.90;;;;;;4958469;28;20479;-62
2022/12/28 10:45:15;;;;;;;2.78;1.60;;;2.40;99.90;;;;;;4961392;28;20058;-62
2022/12/28 10:47:46;;;;;;;7.15;1.75;;;2.40;99.90;;;;;;4960474;28;20225;-63
2022/12/28 10:50:42;;;;;;;4.40;2.28;;;2.30;99.90;;;;;;4967196;28;20055;-61
2022/12/28 10:53:32;;;;;;;5.78;1.92;;;2.30;99.90;;;;;;4962130;28;20137;-62
2022/12/28 10:56:13;;;;;;;2.65;1.88;;;2.20;99.90;;;;;;4962129;28;20054;-62
2022/12/28 10:58:42;;;;;;;3.17;1.92;;;2.20;99.90;;;;;;4960144;28;20050;-61
2022/12/28 11:01:12;;;;;;;4.10;1.40;;;2.20;99.90;;;;;;4957029;28;20046;-62
2022/12/28 11:04:00;;;;;;;2.35;1.45;;;2.10;99.90;;;;;;4959013;28;20050;-62
2022/12/28 11:06:33;;;;;;;2.05;1.33;;;2.10;99.90;;;;;;4961982;28;20105;-61
2022/12/28 11:09:36;;;;;;;1.98;1.30;;;2.00;99.90;;;;;;4960200;28;20059;-61
2022/12/28 11:12:39;;;;;;;1.98;1.35;;;1.90;99.90;;;;;;4959550;28;20083;-62
2022/12/28 11:15:13;;;;;;;3.05;1.25;;;1.90;99.90;;;;;;4961534;28;20066;-62
2022/12/28 11:17:41;;;;;;;2.58;1.83;;;1.80;99.90;;;;;;4962784;28;20055;-60
2022/12/28 11:20:17;;;;;;;2.55;1.25;;;1.80;99.90;;;;;;4957410;28;20050;-61
2022/12/28 11:22:46;;;;;;;3.50;2.10;;;1.80;99.90;;;;;;4957425;28;20065;-62
2022/12/28 11:25:29;;;;;;;4.43;1.60;;;1.70;99.90;;;;;;4961959;28;20070;-62
2022/12/28 11:27:57;;;;;;;5.15;1.55;;;1.70;99.90;;;;;;4958022;28;20138;-61
2022/12/28 11:30:24;;;;;;;2.72;1.63;;;1.80;99.90;;;;;;4958798;28;20150;-62
2022/12/28 11:32:55;;;;;;;4.22;1.95;;;1.80;99.90;;;;;;4959950;28;20054;-61
2022/12/28 11:35:27;;;;;;;5.22;1.48;;;1.80;99.90;;;;;;4957751;28;20055;-62
2022/12/28 11:37:57;;;;;;;1.65;1.30;;;1.90;99.90;;;;;;4963616;28;20046;-60
2022/12/28 11:40:42;;;;;;;3.20;2.07;;;1.90;99.90;;;;;;4958850;28;20062;-61
2022/12/28 11:43:27;;;;;;;3.08;1.95;;;2.00;99.90;;;;;;4958889;28;20372;-61
2022/12/28 11:45:57;;;;;;;2.25;1.95;;;2.00;99.90;;;;;;4956735;28;20455;-61
2022/12/28 11:48:40;;;;;;;3.10;1.75;;;2.10;99.90;;;;;;4961619;28;20070;-61
2022/12/28 11:51:24;;;;;;;3.45;1.60;;;2.10;99.90;;;;;;4951743;28;20049;-62
2022/12/28 11:53:52;;;;;;;2.28;1.50;;;2.20;99.90;;;;;;4964981;28;20141;-61
2022/12/28 11:56:21;;;;;;;4.57;3.85;;;2.30;99.90;;;;;;4959426;28;20129;-61
2022/12/28 11:58:57;;;;;;;1.73;1.27;;;2.30;99.90;;;;;;4961584;28;20039;-61
2022/12/28 12:01:35;;;;;;;6.30;1.90;;;2.30;99.90;;;;;;4961779;28;20051;-61
2022/12/28 12:04:02;;;;;;;4.00;1.98;;;2.40;99.90;;;;;;4963465;28;20073;-61
2022/12/28 12:06:45;;;;;;;3.28;1.58;;;2.40;99.90;;;;;;4961956;28;20142;-62
2022/12/28 12:09:25;;;;;;;1.30;1.13;;;2.50;99.90;;;;;;4991503;28;20051;-61
2022/12/28 12:11:54;;;;;;;1.90;1.52;;;2.50;99.90;;;;;;4958584;28;20081;-63
2022/12/28 12:14:32;;;;;;;4.97;2.38;;;2.60;99.90;;;;;;4962950;28;20093;-61
2022/12/28 12:17:03;;;;;;;3.10;2.80;;;2.70;99.90;;;;;;4959198;28;20426;-61
2022/12/28 12:19:41;;;;;;;2.97;1.40;;;2.80;99.90;;;;;;4962527;28;20122;-64
2022/12/28 12:22:47;;;;;;;2.67;1.45;;;2.80;99.90;;;;;;4964574;28;20101;-61
2022/12/28 12:25:17;;;;;;;3.15;1.92;;;2.90;99.90;;;;;;4960602;28;20047;-62
2022/12/28 12:27:50;;;;;;;;;;;2.90;99.90;;;;;;4960473;28;20128;-61
2022/12/28 12:30:20;;;;;;;1.40;1.17;;;3.00;99.90;;;;;;4974886;28;20584;-61
2022/12/28 12:32:58;;;;;;;0.87;0.63;;;3.10;99.90;;;;;;4961496;28;20047;-66
2022/12/28 12:35:27;;;;;;;2.58;1.20;;;3.20;99.90;;;;;;4960015;28;20714;-61
2022/12/28 12:38:01;;;;;;;2.10;1.30;;;3.20;99.90;;;;;;4957767;28;20055;-62
2022/12/28 12:40:42;;;;;;;3.78;0.88;;;3.30;99.90;;;;;;4958313;28;20634;-61
2022/12/28 12:43:28;;;;;;;4.57;2.08;;;3.30;99.90;;;;;;4955984;28;20140;-61
2022/12/28 12:46:14;;;;;;;1.80;1.60;;;3.40;99.90;;;;;;4959492;28;20050;-61
2022/12/28 12:48:57;;;;;;;2.92;2.45;;;3.50;99.90;;;;;;4960647;28;20051;-61
2022/12/28 12:51:32;;;;;;;2.28;1.90;;;3.50;99.90;;;;;;4959739;28;20050;-63
2022/12/28 12:54:22;;;;;;;1.77;1.60;;;3.60;99.90;;;;;;4957164;28;20122;-62
2022/12/28 12:57:02;;;;;;;2.05;1.23;;;3.70;99.90;;;;;;4956308;28;20050;-61
2022/12/28 12:59:57;;;;;;;3.10;2.28;;;3.70;99.90;;;;;;4960190;28;20067;-64
2022/12/28 13:02:40;;;;;;;2.17;1.30;;;3.80;99.90;;;;;;4961097;28;20047;-61
2022/12/28 13:05:16;;;;;;;2.30;1.98;;;3.80;99.90;;;;;;4956716;28;20051;-60
2022/12/28 13:07:43;;;;;;;10.57;2.92;;;3.80;99.90;;;;;;4954971;28;20146;-61
2022/12/28 13:10:18;;;;;;;2.40;2.05;;;3.80;99.90;;;;;;4961061;28;20146;-61
2022/12/28 13:12:45;;;;;;;3.08;2.13;;;3.90;99.90;;;;;;4955404;28;20604;-63
2022/12/28 13:15:16;;;;;;;3.63;2.38;;;3.90;99.90;;;;;;4963719;28;20039;-61
2022/12/28 13:18:01;;;;;;;2.65;2.45;;;3.90;99.90;;;;;;4967404;28;20054;-62
2022/12/28 13:21:07;;;;;;;7.18;2.60;;;3.90;99.90;;;;;;4957611;28;22764;-61
2022/12/28 13:23:43;;;;;;;2.95;2.45;;;3.90;99.90;;;;;;4964798;28;20047;-62
2022/12/28 13:26:13;;;;;;;4.63;3.05;;;4.00;99.90;;;;;;4966868;28;20046;-61
2022/12/28 13:28:57;;;;;;;4.30;3.13;;;4.00;99.90;;;;;;4958979;28;20071;-61
2022/12/28 13:31:34;;;;;;;4.28;3.00;;;4.00;99.90;;;;;;4974574;28;20868;-61
2022/12/28 13:34:03;;;;;;;6.22;2.67;;;4.00;99.90;;;;;;4962465;28;20049;-61
2022/12/28 13:36:30;;;;;;;5.72;3.15;;;4.10;99.90;;;;;;4959038;28;20051;-61
2022/12/28 13:39:10;;;;;;;7.97;2.92;;;4.00;99.90;;;;;;4967771;28;20709;-61
2022/12/28 13:41:50;;;;;;;7.43;3.33;;;4.10;99.90;;;;;;4961673;28;20050;-61
2022/12/28 13:44:23;;;;;;;4.00;2.15;;;4.10;99.90;;;;;;4963618;28;20054;-61
2022/12/28 13:47:00;;;;;;;3.72;2.20;;;4.10;99.90;;;;;;4962320;28;20402;-61
2022/12/28 13:49:32;;;;;;;5.22;3.08;;;4.10;99.90;;;;;;4958085;28;20567;-62
2022/12/28 13:52:00;;;;;;;3.88;2.30;;;4.10;99.90;;;;;;4963422;28;20042;-61
2022/12/28 13:54:27;;;;;;;3.95;2.35;;;4.20;99.90;;;;;;4962141;28;20086;-61
2022/12/28 13:56:55;;;;;;;6.65;2.05;;;4.20;99.90;;;;;;4960715;28;20046;-61